Time;durP1;ratioP1;P1;durP2;ratioP2;P2;SDS_P1;SDS_P2;PMS_P1;PMS_P2;Temp;Humidity;BMP_temperature;BMP_pressure;BME280_temperature;BME280_humidity;BME280_pressure;Samples;Min_cycle;Max_cycle;Signal;HPM_P1;HPM_P2
2023/12/21 00:01:21;;;;;;;10.93;4.90;;;;;;;12.51;68.39;100664.09;4778305;29;119233;-72
2023/12/21 00:03:48;;;;;;;12.38;4.47;;;;;;;12.52;68.37;100677.28;4761859;29;124900;-71
2023/12/21 00:06:15;;;;;;;14.23;4.53;;;;;;;12.51;68.37;100659.66;4774432;29;124421;-71
2023/12/21 00:08:42;;;;;;;10.45;4.80;;;;;;;12.53;68.49;100652.47;4756104;29;118059;-71
2023/12/21 00:11:09;;;;;;;10.98;4.28;;;;;;;12.54;68.31;100643.53;4755702;29;119523;-71
2023/12/21 00:13:36;;;;;;;9.15;4.18;;;;;;;12.55;68.37;100626.66;4777186;29;124687;-71
2023/12/21 00:16:04;;;;;;;12.68;4.60;;;;;;;12.55;68.35;100617.84;4762969;29;124301;-71
2023/12/21 00:18:31;;;;;;;9.73;4.10;;;;;;;12.56;68.41;100609.75;4752081;29;120001;-71
2023/12/21 00:20:59;;;;;;;8.60;4.18;;;;;;;12.56;68.35;100609.75;4760569;29;121615;-72
2023/12/21 00:23:26;;;;;;;14.40;4.50;;;;;;;12.56;68.41;100625.69;4760372;29;125812;-71
2023/12/21 00:25:53;;;;;;;14.23;4.88;;;;;;;12.55;68.44;100608.06;4761062;29;124857;-71
2023/12/21 00:28:20;;;;;;;9.80;4.60;;;;;;;12.57;68.35;100608.00;4777317;29;119471;-71
2023/12/21 00:30:47;;;;;;;16.08;4.80;;;;;;;12.56;68.34;100609.75;4761345;29;119524;-71
2023/12/21 00:33:15;;;;;;;11.15;4.72;;;;;;;12.55;68.41;100602.75;4736608;29;123323;-71
2023/12/21 00:35:42;;;;;;;11.38;4.40;;;;;;;12.55;68.37;100600.09;4763801;29;125942;-71
2023/12/21 00:38:09;;;;;;;12.57;4.45;;;;;;;12.54;68.56;100601.03;4758342;29;122003;-71
2023/12/21 00:40:36;;;;;;;10.38;5.05;;;;;;;12.54;68.58;100601.03;4754293;29;119589;-71
2023/12/21 00:43:03;;;;;;;9.02;4.38;;;;;;;12.55;68.59;100597.44;4747053;29;125255;-71
2023/12/21 00:45:31;;;;;;;10.18;4.55;;;;;;;12.54;68.61;100582.44;4758990;29;123647;-71
2023/12/21 00:47:58;;;;;;;12.75;4.90;;;;;;;12.55;68.54;100576.19;4758222;29;120314;-71
2023/12/21 00:50:25;;;;;;;10.13;4.40;;;;;;;12.53;68.58;100567.47;4759204;29;118936;-71
2023/12/21 00:52:53;;;;;;;17.08;5.10;;;;;;;12.53;68.54;100567.47;4757784;29;123406;-72
2023/12/21 00:55:20;;;;;;;10.60;4.72;;;;;;;12.53;68.54;100567.47;4759802;29;123892;-71
2023/12/21 00:57:47;;;;;;;11.52;5.05;;;;;;;12.54;68.58;100569.16;4758034;29;119748;-71
2023/12/21 01:00:15;;;;;;;12.40;4.70;;;;;;;12.53;68.60;100559.47;4758439;29;119791;-71
2023/12/21 01:02:42;;;;;;;14.10;5.47;;;;;;;12.54;68.61;100553.22;4759665;29;124185;-71
2023/12/21 01:05:09;;;;;;;15.90;4.95;;;;;;;12.53;68.72;100551.50;4742760;29;124522;-71
2023/12/21 01:07:36;;;;;;;12.15;4.70;;;;;;;12.55;68.79;100546.97;4767799;29;120304;-72
2023/12/21 01:10:05;;;;;;;11.65;4.65;;;;;;;12.56;68.64;100546.00;4763235;29;119958;-71
2023/12/21 01:12:32;;;;;;;8.10;4.50;;;;;;;12.57;68.61;100537.09;4743350;29;124130;-71
2023/12/21 01:15:00;;;;;;;13.95;4.78;;;;;;;12.57;68.55;100526.47;4772853;29;123510;-71
2023/12/21 01:17:27;;;;;;;13.80;4.20;;;;;;;12.57;68.61;100526.47;4740595;29;118259;-71
2023/12/21 01:19:55;;;;;;;13.70;3.63;;;;;;;12.58;68.77;100516.69;4762717;29;119547;-71
2023/12/21 01:22:22;;;;;;;10.25;4.30;;;;;;;12.58;68.58;100506.94;4760245;29;124688;-71
2023/12/21 01:24:50;;;;;;;12.95;4.57;;;;;;;12.57;68.43;100515.84;4759401;29;124172;-72
2023/12/21 01:27:17;;;;;;;10.95;4.28;;;;;;;12.57;68.72;100515.84;4743350;29;119237;-71
2023/12/21 01:29:58;;;;;;;8.80;4.22;;;;;;;12.58;68.64;100519.34;4773782;29;119210;-71
2023/12/21 01:32:25;;;;;;;9.35;4.40;;;;;;;12.57;68.56;100510.53;4757210;29;123723;-71
2023/12/21 01:34:52;;;;;;;11.23;4.03;;;;;;;12.58;68.73;100512.25;4743442;29;124559;-71
2023/12/21 01:37:19;;;;;;;9.98;4.28;;;;;;;12.56;68.64;100498.19;4759468;29;118937;-71
2023/12/21 01:39:47;;;;;;;13.35;4.60;;;;;;;12.58;68.74;100501.63;4771920;29;118166;-72
2023/12/21 01:42:14;;;;;;;11.55;5.07;;;;;;;12.58;68.76;100492.78;4758142;29;126346;-72
2023/12/21 01:44:41;;;;;;;12.50;4.88;;;;;;;12.59;68.87;100495.34;4756888;29;123836;-72
2023/12/21 01:47:09;;;;;;;8.70;4.70;;;;;;;12.57;68.83;100494.59;4769401;29;118584;-72
2023/12/21 01:49:37;;;;;;;12.25;4.70;;;;;;;12.59;68.77;100495.34;4744839;29;119932;-71
2023/12/21 01:52:06;;;;;;;9.45;4.55;;;;;;;12.59;68.82;100487.38;4753586;29;124838;-72
2023/12/21 01:54:35;;;;;;;10.80;4.55;;;;;;;12.60;68.76;100467.88;4750167;29;123806;-72
2023/12/21 01:57:02;;;;;;;8.90;5.00;;;;;;;12.60;68.75;100467.88;4775975;29;120219;-72
2023/12/21 01:59:30;;;;;;;9.70;4.78;;;;;;;12.60;68.96;100467.88;4750069;29;120192;-71
2023/12/21 02:02:01;;;;;;;9.73;5.00;;;;;;;12.60;68.80;100462.56;4758818;29;124306;-71
2023/12/21 02:04:29;;;;;;;10.95;4.88;;;;;;;12.61;68.77;100469.56;4770172;29;123644;-71
2023/12/21 02:06:56;;;;;;;9.77;4.32;;;;;;;12.62;68.80;100471.28;4763554;29;119703;-71
2023/12/21 02:09:24;;;;;;;13.43;5.13;;;;;;;12.62;68.77;100484.56;4772061;29;118871;-72
2023/12/21 02:11:51;;;;;;;17.42;5.63;;;;;;;12.61;68.74;100469.56;4768119;29;124034;-72
2023/12/21 02:14:18;;;;;;;13.93;5.25;;;;;;;12.60;68.77;100482.91;4778185;29;124042;-71
2023/12/21 02:16:55;;;;;;;10.07;5.38;;;;;;;12.59;69.03;100487.38;4761852;29;119457;-71
2023/12/21 02:19:23;;;;;;;10.40;5.38;;;;;;;12.59;68.85;100471.44;4759859;29;118941;-71
2023/12/21 02:21:51;;;;;;;12.18;5.32;;;;;;;12.58;68.86;100467.09;4768610;29;124003;-71
2023/12/21 02:24:19;;;;;;;9.90;4.82;;;;;;;12.58;68.94;100453.81;4775952;29;124401;-71
2023/12/21 02:26:46;;;;;;;13.27;5.38;;;;;;;12.58;68.62;100459.13;4770969;29;120016;-71
2023/12/21 02:29:13;;;;;;;12.70;5.47;;;;;;;12.59;68.99;100450.19;4778963;29;119342;-71
2023/12/21 02:31:41;;;;;;;12.50;5.10;;;;;;;12.60;68.87;100441.28;4766359;29;124495;-71
2023/12/21 02:34:08;;;;;;;13.30;5.47;;;;;;;12.59;68.95;100433.41;4759746;29;123929;-71
2023/12/21 02:36:35;;;;;;;12.07;5.28;;;;;;;12.59;68.81;100428.94;4770047;29;119892;-71
2023/12/21 02:39:02;;;;;;;16.98;5.47;;;;;;;12.59;68.88;100431.59;4752565;29;118326;-71
2023/12/21 02:41:30;;;;;;;12.75;6.07;;;;;;;12.60;68.92;100414.72;4752048;29;124765;-71
2023/12/21 02:43:57;;;;;;;14.10;5.43;;;;;;;12.61;68.87;100410.25;4772447;29;124490;-71
2023/12/21 02:46:27;;;;;;;12.75;5.78;;;;;;;12.60;68.88;100406.75;4776850;29;120303;-71
2023/12/21 02:48:54;;;;;;;11.43;5.70;;;;;;;12.60;68.88;100408.53;4765604;29;120376;-71
2023/12/21 02:51:22;;;;;;;13.40;5.40;;;;;;;12.59;69.03;100399.72;4775423;29;124848;-71
2023/12/21 02:53:49;;;;;;;14.43;5.53;;;;;;;12.59;68.97;100413.00;4778534;29;123821;-71
2023/12/21 02:56:16;;;;;;;12.02;5.20;;;;;;;12.58;68.91;100395.38;4740636;29;120393;-71
2023/12/21 02:58:43;;;;;;;11.25;5.47;;;;;;;12.58;69.05;100395.38;4773426;29;119132;-70
2023/12/21 03:01:11;;;;;;;11.93;5.90;;;;;;;12.58;69.11;100406.00;4771355;29;123806;-70
2023/12/21 03:03:38;;;;;;;10.35;5.82;;;;;;;12.59;68.84;100406.84;4764544;29;123948;-71
2023/12/21 03:06:06;;;;;;;12.10;5.80;;;;;;;12.59;68.97;100397.06;4772124;29;120962;-71
2023/12/21 03:08:33;;;;;;;16.00;5.82;;;;;;;12.60;69.03;100393.47;4758113;29;118086;-70
2023/12/21 03:11:01;;;;;;;11.75;6.00;;;;;;;12.60;69.03;100382.84;4768071;29;123927;-71
2023/12/21 03:13:28;;;;;;;16.20;6.55;;;;;;;12.59;68.95;100374.97;4758973;29;124002;-71
2023/12/21 03:15:55;;;;;;;13.35;6.13;;;;;;;12.59;68.97;100362.53;4777018;29;119778;-71
2023/12/21 03:18:22;;;;;;;17.05;6.68;;;;;;;12.58;69.05;100344.91;4778957;29;119275;-70
2023/12/21 03:20:49;;;;;;;15.93;5.85;;;;;;;12.59;69.17;100335.13;4761513;29;124091;-70
2023/12/21 03:23:16;;;;;;;11.30;6.13;;;;;;;12.58;68.93;100323.66;4778268;29;125096;-71
2023/12/21 03:25:43;;;;;;;13.52;6.20;;;;;;;12.58;69.07;100315.69;4761453;29;120128;-70
2023/12/21 03:28:14;;;;;;;15.38;6.57;;;;;;;12.57;69.24;100298.00;4763031;29;119003;-71
2023/12/21 03:30:43;;;;;;;11.02;6.13;;;;;;;12.58;69.08;100289.13;4774414;29;124417;-71
2023/12/21 03:33:10;;;;;;;12.10;6.18;;;;;;;12.58;69.04;100283.81;4771009;29;124627;-71
2023/12/21 03:35:38;;;;;;;11.65;6.20;;;;;;;12.59;69.13;100290.81;4754524;29;120092;-71
2023/12/21 03:38:05;;;;;;;12.95;5.93;;;;;;;12.59;69.03;100285.50;4777199;29;119494;-71
2023/12/21 03:40:32;;;;;;;15.90;6.55;;;;;;;12.58;69.01;100283.81;4775772;29;124050;-71
2023/12/21 03:42:59;;;;;;;15.63;6.03;;;;;;;12.60;69.04;100286.34;4761455;29;124351;-70
2023/12/21 03:45:26;;;;;;;16.05;6.45;;;;;;;12.60;69.00;100284.56;4776971;29;119884;-71
2023/12/21 03:47:53;;;;;;;15.40;5.72;;;;;;;12.60;69.13;100259.78;4760991;29;119621;-71
2023/12/21 03:50:21;;;;;;;15.68;5.60;;;;;;;12.61;69.11;100246.41;4768637;29;124347;-70
2023/12/21 03:52:48;;;;;;;17.67;6.05;;;;;;;12.60;68.98;100252.69;4775040;29;124251;-71
2023/12/21 03:55:15;;;;;;;16.55;5.47;;;;;;;12.58;69.19;100246.59;4778066;29;119790;-70
2023/12/21 03:57:43;;;;;;;13.23;5.13;;;;;;;12.58;69.07;100251.91;4778008;29;119504;-71
2023/12/21 04:00:10;;;;;;;13.73;4.97;;;;;;;12.59;69.05;100253.59;4777178;29;123743;-70
2023/12/21 04:02:37;;;;;;;15.52;5.15;;;;;;;12.59;69.20;100237.66;4760992;29;122773;-70
2023/12/21 04:05:05;;;;;;;12.70;5.00;;;;;;;12.60;69.07;100244.72;4759095;29;119237;-70
2023/12/21 04:07:32;;;;;;;14.13;4.95;;;;;;;12.60;69.10;100242.06;4770302;29;118604;-70
2023/12/21 04:10:00;;;;;;;15.02;4.90;;;;;;;12.60;69.32;100239.41;4765949;29;123961;-70
2023/12/21 04:12:28;;;;;;;16.85;5.30;;;;;;;12.61;69.24;100241.09;4776289;29;124620;-70
2023/12/21 04:14:55;;;;;;;11.20;4.38;;;;;;;12.63;69.16;100243.66;4762199;29;119303;-70
2023/12/21 04:17:22;;;;;;;12.82;4.72;;;;;;;12.63;69.31;100228.56;4772559;29;118783;-70
2023/12/21 04:19:51;;;;;;;12.38;4.55;;;;;;;12.63;69.26;100223.25;4761899;29;124002;-70
2023/12/21 04:22:18;;;;;;;14.45;4.32;;;;;;;12.62;69.34;100204.72;4765381;29;124079;-70
2023/12/21 04:24:45;;;;;;;23.35;5.13;;;;;;;12.64;69.23;100193.06;4761006;29;120426;-70
2023/12/21 04:27:12;;;;;;;12.07;4.75;;;;;;;12.64;69.17;100193.06;4765787;29;120226;-70
2023/12/21 04:29:39;;;;;;;14.48;4.60;;;;;;;12.65;69.23;100192.09;4754318;29;124300;-70
2023/12/21 04:32:07;;;;;;;11.52;4.55;;;;;;;12.69;69.11;100189.25;4757770;29;124619;-70
2023/12/21 04:34:35;;;;;;;14.65;4.72;;;;;;;12.69;69.19;100181.28;4751512;29;118357;-70
2023/12/21 04:37:02;;;;;;;15.50;5.03;;;;;;;12.70;69.07;100164.41;4745633;29;118983;-70
2023/12/21 04:39:30;;;;;;;17.50;5.20;;;;;;;12.71;69.20;100144.84;4771127;29;123728;-71
2023/12/21 04:41:58;;;;;;;17.30;4.82;;;;;;;12.71;69.20;100126.25;4768598;29;124284;-72
2023/12/21 04:44:25;;;;;;;15.07;4.38;;;;;;;12.72;69.27;100142.09;4752493;29;119892;-71
2023/12/21 04:46:52;;;;;;;14.38;5.18;;;;;;;12.72;69.05;100151.88;4756433;29;120833;-71
2023/12/21 04:49:22;;;;;;;14.57;5.00;;;;;;;12.74;69.07;100142.84;4739683;29;124372;-71
2023/12/21 04:51:50;;;;;;;15.15;5.32;;;;;;;12.75;69.10;100114.47;4776703;29;123907;-71
2023/12/21 04:54:17;;;;;;;12.13;4.95;;;;;;;12.78;69.10;100132.88;4776674;29;119672;-71
2023/12/21 04:56:44;;;;;;;12.98;5.07;;;;;;;12.79;68.88;100102.66;4757648;29;118578;-71
2023/12/21 04:59:11;;;;;;;14.73;5.13;;;;;;;12.79;69.07;100100.00;4769533;29;124311;-71
2023/12/21 05:01:39;;;;;;;20.63;5.25;;;;;;;12.80;69.05;100085.78;4757787;29;124342;-71
2023/12/21 05:04:07;;;;;;;21.15;5.57;;;;;;;12.81;69.08;100067.09;4758351;29;119205;-71
2023/12/21 05:06:34;;;;;;;16.73;5.72;;;;;;;12.82;68.84;100067.94;4769432;29;118580;-71
2023/12/21 05:09:03;;;;;;;16.08;5.85;;;;;;;12.83;68.87;100069.66;4759319;29;123034;-71
2023/12/21 05:11:30;;;;;;;17.17;5.90;;;;;;;12.83;68.91;100085.59;4742569;29;125448;-71
2023/12/21 05:13:57;;;;;;;19.20;5.90;;;;;;;12.84;68.78;100081.97;4772473;29;119941;-71
2023/12/21 05:16:24;;;;;;;17.58;5.82;;;;;;;12.86;68.87;100085.38;4759369;29;120789;-72
2023/12/21 05:18:51;;;;;;;17.67;5.57;;;;;;;12.88;68.93;100078.16;4738466;29;122962;-71
2023/12/21 05:21:18;;;;;;;16.42;5.45;;;;;;;12.89;69.04;100058.59;4760222;29;123852;-71
2023/12/21 05:23:46;;;;;;;21.85;6.03;;;;;;;12.91;68.78;100071.78;4776793;29;119880;-71
2023/12/21 05:26:14;;;;;;;15.48;5.35;;;;;;;12.92;68.74;100069.03;4765399;29;119102;-71
2023/12/21 05:28:42;;;;;;;14.40;5.43;;;;;;;12.94;68.68;100056.50;4757444;29;125700;-71
2023/12/21 05:31:11;;;;;;;13.40;5.35;;;;;;;12.97;68.67;100066.91;4761215;29;123988;-71
2023/12/21 05:33:38;;;;;;;13.25;5.32;;;;;;;12.98;68.59;100052.66;4776284;29;119028;-72
2023/12/21 05:36:06;;;;;;;11.85;5.13;;;;;;;13.00;68.50;100058.72;4761019;29;119557;-71
2023/12/21 05:38:34;;;;;;;17.05;5.03;;;;;;;13.02;68.52;100059.47;4761962;29;125544;-71
2023/12/21 05:41:02;;;;;;;11.40;4.53;;;;;;;13.04;68.42;100046.94;4763888;29;124042;-72
2023/12/21 05:43:29;;;;;;;18.33;5.18;;;;;;;13.04;68.40;100046.94;4763151;29;119217;-71
2023/12/21 05:45:57;;;;;;;12.73;4.57;;;;;;;13.06;68.34;100046.81;4762456;29;119956;-71
2023/12/21 05:48:24;;;;;;;12.27;4.28;;;;;;;13.07;68.37;100034.38;4771835;29;124048;-71
2023/12/21 05:50:51;;;;;;;9.80;3.90;;;;;;;13.08;68.21;100041.41;4766374;29;124776;-71
2023/12/21 05:53:18;;;;;;;11.35;4.18;;;;;;;13.09;68.25;100048.41;4768861;29;120156;-71
2023/12/21 05:55:45;;;;;;;15.30;3.53;;;;;;;13.09;68.33;100045.75;4762454;29;118590;-71
2023/12/21 05:58:13;;;;;;;13.65;4.03;;;;;;;13.11;68.29;100046.50;4761936;29;124745;-72
2023/12/21 06:00:40;;;;;;;10.60;3.58;;;;;;;13.10;68.15;100055.44;4771963;29;123865;-71
2023/12/21 06:03:07;;;;;;;9.73;3.67;;;;;;;13.10;68.28;100056.28;4763458;29;120202;-71
2023/12/21 06:05:34;;;;;;;13.52;3.05;;;;;;;13.11;68.23;100025.22;4760623;29;120820;-71
2023/12/21 06:08:01;;;;;;;10.43;2.92;;;;;;;13.10;68.11;100035.03;4751950;29;125360;-72
2023/12/21 06:10:28;;;;;;;14.25;3.60;;;;;;;13.11;68.03;100019.91;4761267;29;124082;-71
2023/12/21 06:12:55;;;;;;;9.50;2.90;;;;;;;13.11;68.30;100010.16;4769583;29;120241;-71
2023/12/21 06:15:22;;;;;;;10.57;3.20;;;;;;;13.11;68.33;100018.13;4756265;29;118756;-71
2023/12/21 06:17:50;;;;;;;10.32;3.17;;;;;;;13.12;68.25;100017.16;4770488;29;123779;-71
2023/12/21 06:20:17;;;;;;;9.80;2.58;;;;;;;13.14;68.14;100009.06;4772913;29;123874;-71
2023/12/21 06:22:44;;;;;;;12.27;2.72;;;;;;;13.17;68.25;100003.56;4770850;29;120023;-72
2023/12/21 06:25:12;;;;;;;13.02;2.72;;;;;;;13.17;68.02;100007.06;4770079;29;118183;-71
2023/12/21 06:27:40;;;;;;;7.65;2.70;;;;;;;13.19;68.06;99991.00;4772599;29;123876;-71
2023/12/21 06:30:07;;;;;;;11.85;2.60;;;;;;;13.19;68.09;99991.00;4770313;29;124432;-71
2023/12/21 06:32:34;;;;;;;10.40;2.65;;;;;;;13.17;68.04;99987.59;4772402;29;118997;-71
2023/12/21 06:35:02;;;;;;;12.85;2.50;;;;;;;13.16;67.88;99985.88;4759365;29;118125;-71
2023/12/21 06:37:29;;;;;;;9.13;2.53;;;;;;;13.14;68.07;99977.16;4756487;29;125208;-71
2023/12/21 06:39:57;;;;;;;9.45;2.60;;;;;;;13.13;68.10;99980.78;4773998;29;123949;-71
2023/12/21 06:42:24;;;;;;;8.73;2.38;;;;;;;13.12;68.05;99979.09;4757357;29;119538;-71
2023/12/21 06:44:51;;;;;;;8.60;2.60;;;;;;;13.11;68.14;100010.16;4773581;29;118965;-72
2023/12/21 06:47:18;;;;;;;8.75;2.40;;;;;;;13.10;68.35;99981.00;4760208;29;124912;-71
2023/12/21 06:49:45;;;;;;;6.72;2.45;;;;;;;13.10;68.26;99986.31;4757144;29;123870;-71
2023/12/21 06:52:13;;;;;;;9.07;2.53;;;;;;;13.08;68.20;99975.78;4770702;29;120443;-71
2023/12/21 06:54:40;;;;;;;6.45;2.70;;;;;;;13.08;68.25;99972.28;4760642;29;120681;-71
2023/12/21 06:57:07;;;;;;;7.80;2.40;;;;;;;13.08;68.50;99962.50;4777733;29;125227;-71
2023/12/21 06:59:34;;;;;;;9.38;2.60;;;;;;;13.09;68.49;99958.03;4769208;29;124288;-71
2023/12/21 07:02:01;;;;;;;7.38;2.85;;;;;;;13.10;68.45;99951.75;4772298;29;119708;-71
2023/12/21 07:04:28;;;;;;;8.52;2.80;;;;;;;13.09;68.64;99942.94;4775352;29;119384;-71
2023/12/21 07:06:57;;;;;;;9.95;3.08;;;;;;;13.11;68.48;99932.19;4768593;29;123954;-71
2023/12/21 07:09:24;;;;;;;12.60;3.00;;;;;;;13.11;68.63;99919.75;4761028;29;125486;-71
2023/12/21 07:11:53;;;;;;;8.57;3.08;;;;;;;13.12;68.61;99918.78;4776686;29;118904;-71
2023/12/21 07:14:20;;;;;;;10.15;3.10;;;;;;;13.13;68.60;99898.34;4755813;29;119642;-71
2023/12/21 07:16:47;;;;;;;7.80;2.80;;;;;;;13.13;68.68;99895.69;4766393;29;124184;-72
2023/12/21 07:19:14;;;;;;;9.35;3.20;;;;;;;13.14;68.65;99905.38;4762358;29;124377;-72
2023/12/21 07:21:41;;;;;;;8.23;2.67;;;;;;;13.13;68.61;99898.34;4758679;29;119127;-71
2023/12/21 07:24:08;;;;;;;8.27;2.92;;;;;;;13.13;68.67;99882.41;4760371;29;119915;-72
2023/12/21 07:26:35;;;;;;;10.55;3.15;;;;;;;13.12;68.57;99886.03;4745126;29;125505;-72
2023/12/21 07:29:04;;;;;;;10.93;3.08;;;;;;;13.12;68.66;99878.06;4766184;29;124136;-71
2023/12/21 07:31:31;;;;;;;9.30;3.00;;;;;;;13.13;68.64;99870.00;4770355;29;118546;-72
2023/12/21 07:33:59;;;;;;;9.93;3.25;;;;;;;13.13;68.68;99864.66;4773904;29;119468;-73
2023/12/21 07:36:26;;;;;;;9.25;2.80;;;;;;;13.14;68.66;99854.88;4756645;29;125486;-72
2023/12/21 07:38:54;;;;;;;11.68;3.05;;;;;;;13.14;68.72;99854.88;4751780;29;123908;-72
2023/12/21 07:41:21;;;;;;;5.20;2.10;;;;;;;13.16;68.40;99868.91;4741142;29;120172;-71
2023/12/21 07:43:48;;;;;;;5.57;2.45;;;;;;;13.16;68.69;99847.63;4767043;29;120137;-71
2023/12/21 07:46:15;;;;;;;7.53;2.47;;;;;;;13.17;68.61;99860.00;4771384;29;124004;-72
2023/12/21 07:48:42;;;;;;;8.70;2.50;;;;;;;13.18;68.64;99845.72;4758373;29;123996;-71
2023/12/21 07:51:10;;;;;;;8.00;2.10;;;;;;;13.18;68.63;99856.34;4755757;29;120276;-70
2023/12/21 07:53:38;;;;;;;7.15;2.28;;;;;;;13.20;68.64;99843.78;4759554;29;118331;-72
2023/12/21 07:56:06;;;;;;;6.85;1.80;;;;;;;13.18;68.54;99840.41;4747543;29;125610;-73
2023/12/21 07:58:33;;;;;;;5.90;1.73;;;;;;;13.19;68.54;99837.63;4767971;29;123455;-73
2023/12/21 08:01:01;;;;;;;7.80;1.88;;;;;;;13.20;68.49;99827.84;4755617;29;119609;-72
2023/12/21 08:03:28;;;;;;;4.88;1.67;;;;;;;13.21;68.57;99824.22;4763215;29;118428;-72
2023/12/21 08:05:55;;;;;;;7.18;1.98;;;;;;;13.21;68.51;99827.72;4773307;29;124566;-73
2023/12/21 08:08:23;;;;;;;4.40;1.60;;;;;;;13.21;68.34;99813.59;4736835;29;124205;-72
2023/12/21 08:10:50;;;;;;;5.47;1.73;;;;;;;13.22;68.47;99816.16;4767101;29;119544;-73
2023/12/21 08:13:17;;;;;;;3.97;1.35;;;;;;;13.21;68.48;99819.75;4758037;29;118966;-72
2023/12/21 08:15:44;;;;;;;7.15;2.00;;;;;;;13.22;68.87;99815.28;4747493;29;123273;-73
2023/12/21 08:18:13;;;;;;;7.80;1.70;;;;;;;13.21;68.45;99813.59;4764998;29;123482;-72
2023/12/21 08:20:42;;;;;;;7.82;1.70;;;;;;;13.22;68.58;99815.28;4760416;29;120021;-73
2023/12/21 08:23:09;;;;;;;5.20;1.70;;;;;;;13.20;68.35;99806.56;4757296;29;118811;-72
2023/12/21 08:25:37;;;;;;;3.35;1.58;;;;;;;13.22;68.77;99799.31;4765123;29;125893;-72
2023/12/21 08:28:04;;;;;;;3.58;1.50;;;;;;;13.22;68.42;99796.66;4752481;29;125611;-72
2023/12/21 08:30:31;;;;;;;3.75;1.65;;;;;;;13.23;68.49;99785.94;4753216;29;121022;-72
2023/12/21 08:32:59;;;;;;;6.13;1.80;;;;;;;13.23;68.42;99807.19;4770734;29;120539;-72
2023/12/21 08:35:26;;;;;;;3.17;1.55;;;;;;;13.22;68.56;99804.66;4752557;29;124047;-72
2023/12/21 08:37:56;;;;;;;2.92;1.45;;;;;;;13.21;68.55;99805.63;4769795;29;124727;-73
2023/12/21 08:40:23;;;;;;;3.65;1.65;;;;;;;13.20;68.58;99801.25;4746008;29;119956;-72
2023/12/21 08:42:50;;;;;;;3.05;1.42;;;;;;;13.21;68.51;99787.00;4753233;29;119473;-72
2023/12/21 08:45:17;;;;;;;4.10;1.45;;;;;;;13.21;68.68;99787.00;4774409;29;123244;-73
2023/12/21 08:47:45;;;;;;;4.25;1.23;;;;;;;13.22;68.66;99783.38;4770097;29;123826;-73
2023/12/21 08:50:12;;;;;;;2.15;1.38;;;;;;;13.23;68.69;99769.13;4754647;29;119125;-72
2023/12/21 08:52:41;;;;;;;2.20;1.30;;;;;;;13.23;68.70;99758.50;4754850;29;118886;-72
2023/12/21 08:55:09;;;;;;;3.58;1.08;;;;;;;13.24;68.77;99753.06;4740951;29;123985;-73
2023/12/21 08:57:36;;;;;;;3.55;1.38;;;;;;;13.25;68.89;99760.06;4775560;29;124344;-72
2023/12/21 09:00:06;;;;;;;2.00;1.20;;;;;;;13.26;68.77;99742.34;4760366;29;120079;-75
2023/12/21 09:02:34;;;;;;;2.42;1.23;;;;;;;13.28;68.81;99744.84;4747406;29;120274;-73
2023/12/21 09:05:03;;;;;;;5.65;1.38;;;;;;;13.28;68.74;99755.47;4771460;29;122951;-73
2023/12/21 09:07:31;;;;;;;3.10;1.20;;;;;;;13.29;68.77;99758.03;4757168;29;124793;-74
2023/12/21 09:09:59;;;;;;;3.60;1.08;;;;;;;13.29;68.72;99734.09;4760356;29;119201;-74
2023/12/21 09:12:27;;;;;;;2.92;1.00;;;;;;;13.31;68.91;99742.84;4773255;29;119674;-73
2023/12/21 09:14:55;;;;;;;5.53;0.98;;;;;;;13.31;68.86;99734.88;4768593;29;125576;-73
2023/12/21 09:17:22;;;;;;;2.03;1.08;;;;;;;13.34;68.82;99729.34;4777954;29;123786;-73
2023/12/21 09:19:49;;;;;;;2.40;1.00;;;;;;;13.35;68.86;99736.34;4760217;29;121032;-73
2023/12/21 09:22:16;;;;;;;3.10;1.00;;;;;;;13.38;68.99;99717.50;4775613;29;120400;-73
2023/12/21 09:24:44;;;;;;;2.08;0.90;;;;;;;13.40;69.02;99718.22;4755554;29;124517;-73
2023/12/21 09:27:12;;;;;;;2.17;1.15;;;;;;;13.43;68.91;99723.31;4757672;29;123832;-74
2023/12/21 09:29:40;;;;;;;2.40;1.00;;;;;;;13.46;68.92;99700.13;4754264;29;120620;-73
2023/12/21 09:32:08;;;;;;;4.63;1.10;;;;;;;13.48;69.05;99714.16;4759629;29;118214;-73
2023/12/21 09:34:35;;;;;;;3.40;0.80;;;;;;;13.51;68.93;99713.94;4775098;29;124408;-74
2023/12/21 09:37:05;;;;;;;3.63;1.02;;;;;;;13.53;68.83;99710.19;4776775;29;124104;-74
2023/12/21 09:39:32;;;;;;;2.85;0.90;;;;;;;13.56;69.04;99712.63;4776396;29;121531;-74
2023/12/21 09:42:01;;;;;;;3.00;0.80;;;;;;;13.59;68.89;99700.88;4773971;29;119821;-74
2023/12/21 09:44:31;;;;;;;5.88;1.08;;;;;;;13.61;69.04;99704.28;4752094;29;125066;-73
2023/12/21 09:47:02;;;;;;;5.40;1.10;;;;;;;13.65;69.05;99689.75;4770760;29;124805;-74
2023/12/21 09:49:36;;;;;;;3.30;1.17;;;;;;;13.66;69.01;99696.78;4770461;29;119125;-74
2023/12/21 09:52:07;;;;;;;7.07;1.20;;;;;;;13.69;69.00;99688.56;4774376;29;119238;-74
2023/12/21 09:54:36;;;;;;;6.80;1.55;;;;;;;13.71;68.90;99688.44;4767008;29;125417;-73
2023/12/21 09:57:04;;;;;;;3.70;1.17;;;;;;;13.73;68.96;99682.06;4757048;29;124232;-74
2023/12/21 09:59:35;;;;;;;5.85;1.25;;;;;;;13.76;68.78;99678.31;4759214;29;118677;-74
2023/12/21 10:02:11;;;;;;;4.65;1.10;;;;;;;13.78;68.95;99679.88;4759325;29;119905;-74
2023/12/21 10:04:43;;;;;;;4.68;1.20;;;;;;;13.80;68.81;99677.94;4734496;29;125389;-74
2023/12/21 10:07:12;;;;;;;5.60;1.35;;;;;;;13.83;68.85;99683.03;4776060;29;123713;-74
2023/12/21 10:09:40;;;;;;;4.43;1.10;;;;;;;13.86;68.80;99670.47;4759993;29;119932;-74
2023/12/21 10:12:07;;;;;;;3.72;1.20;;;;;;;13.90;68.93;99698.53;4760146;29;119255;-74
2023/12/21 10:14:34;;;;;;;4.10;1.00;;;;;;;13.92;69.06;99680.63;4761065;29;125504;-74
2023/12/21 10:17:02;;;;;;;4.85;1.00;;;;;;;13.94;68.67;99684.88;4761583;29;123412;-74
2023/12/21 10:19:29;;;;;;;5.15;1.10;;;;;;;13.97;68.71;99667.81;4775931;29;119837;-73
2023/12/21 10:21:57;;;;;;;4.53;1.00;;;;;;;14.00;68.75;99662.25;4755989;29;119988;-74
2023/12/21 10:24:25;;;;;;;3.95;1.00;;;;;;;14.02;68.75;99660.31;4750910;29;124005;-74
2023/12/21 10:26:53;;;;;;;2.38;0.85;;;;;;;14.06;68.62;99661.75;4763460;29;124144;-74
2023/12/21 10:29:20;;;;;;;3.00;0.70;;;;;;;14.07;68.70;99647.50;4779608;29;119259;-75
2023/12/21 10:31:48;;;;;;;0.98;0.55;;;;;;;14.11;68.70;99630.31;4763106;29;121081;-75
2023/12/21 10:34:16;;;;;;;6.95;0.88;;;;;;;14.15;68.59;99638.91;4762287;29;124811;-74
2023/12/21 10:36:45;;;;;;;4.07;0.82;;;;;;;14.17;68.85;99632.47;4767781;29;123996;-74
2023/12/21 10:39:15;;;;;;;2.50;0.65;;;;;;;14.21;68.74;99641.91;4752129;29;119908;-74
2023/12/21 10:41:43;;;;;;;0.88;0.63;;;;;;;14.25;68.70;99655.00;4779059;29;119274;-74
2023/12/21 10:44:14;;;;;;;2.35;0.60;;;;;;;14.29;68.74;99645.78;4762799;29;124479;-74
2023/12/21 10:46:42;;;;;;;2.60;0.50;;;;;;;14.34;68.71;99638.28;4772870;29;124548;-74
2023/12/21 10:49:10;;;;;;;4.20;0.68;;;;;;;14.39;68.78;99620.09;4757353;29;118465;-74
2023/12/21 10:51:43;;;;;;;1.60;0.57;;;;;;;14.43;68.66;99626.88;4763091;29;119019;-74
2023/12/21 10:54:14;;;;;;;2.20;0.73;;;;;;;14.49;68.88;99621.06;4771014;29;124075;-74
2023/12/21 10:56:42;;;;;;;2.78;0.52;;;;;;;14.56;68.81;99632.03;4766248;29;124119;-74
2023/12/21 10:59:12;;;;;;;1.08;0.50;;;;;;;14.62;68.72;99636.06;4769413;29;122025;-74
2023/12/21 11:01:40;;;;;;;1.08;0.45;;;;;;;14.67;68.53;99644.53;4774374;29;119912;-74
2023/12/21 11:04:12;;;;;;;2.30;0.50;;;;;;;14.69;68.35;99627.47;4750220;29;125122;-74
2023/12/21 11:06:41;;;;;;;1.80;0.70;;;;;;;14.70;68.34;99626.47;4750538;29;123549;-74
2023/12/21 11:09:11;;;;;;;0.95;0.50;;;;;;;14.71;68.22;99635.31;4767603;29;119805;-74
2023/12/21 11:11:39;;;;;;;0.95;0.50;;;;;;;14.72;68.22;99637.03;4770650;29;119231;-74
2023/12/21 11:14:06;;;;;;;1.95;0.80;;;;;;;14.71;68.30;99629.97;4776621;29;125041;-74
2023/12/21 11:16:37;;;;;;;3.28;0.70;;;;;;;14.71;68.19;99619.31;4779489;29;124950;-74
2023/12/21 11:19:07;;;;;;;2.53;0.70;;;;;;;14.71;68.27;99641.50;4760755;29;119009;-74